»·PEaware :: N163EB KSAN-KLAS

N163EB :: KSAN-KLAS

FLIGHT INFORMATION

Flight Status: Arrived
Operator: Privately registered:
United States
More flights under this callsign
Pilot: Josh T. (20631)
Aircraft: DASSAULT AVIATION FALCON 50
(FA50)
More flights by this aircraft type
Origin: KSAN San Diego Intl-Lindbergh
United States
Destination: KLAS McCarran Intl
United States
More flights between these airports :: More routes between these airports
Route: PADRZ2 CHKNN SEBBY YELAH MISEN KEPEC6
File this flight plan on PilotEdge
Remarks:
Altitude:
(Current/Filed)
37,000ft
Speed:
(Current/Filed)
464kts
Departed: 14-Feb-20 08:01 PM
Arrived: 14-Feb-20 08:56 PM
Distance/Time
Traveled:
224nm/0:54
Distance/Time
To Go:
Arrived

Flight Plot

Page will automatically refresh every two minutes.

Flight plan parsing failed; only flown route is shown


Map Options




Map Legend


Flown Route
Filed Route
Departure Airport
Arrival Airport
Navaid (VOR, NDB)
Fix

Horizontal Profiles

Position Reports

Time Latitude Longitude Heading Altitude Ground
Speed
14-Feb-20 19:18 32.734023 -117.179758 104 18ft 0kts
14-Feb-20 19:19 32.734023 -117.179758 104 18ft 0kts
14-Feb-20 19:20 32.734023 -117.179758 104 18ft 0kts
14-Feb-20 19:21 32.734023 -117.179758 104 18ft 0kts
14-Feb-20 19:22 32.734023 -117.179758 104 18ft 0kts
14-Feb-20 19:23 32.734023 -117.179758 104 18ft 0kts
14-Feb-20 19:31 32.734023 -117.179759 104 18ft 0kts
14-Feb-20 19:32 32.734023 -117.179759 104 18ft 0kts
14-Feb-20 19:33 32.734023 -117.179759 104 18ft 0kts
14-Feb-20 19:34 32.734023 -117.179759 104 18ft 0kts
14-Feb-20 19:35 32.734023 -117.179759 104 18ft 0kts
14-Feb-20 19:36 32.734023 -117.179759 104 18ft 0kts
14-Feb-20 19:37 32.734023 -117.179759 104 18ft 0kts
14-Feb-20 19:38 32.734023 -117.179759 104 18ft 0kts
14-Feb-20 19:39 32.734023 -117.179759 104 18ft 0kts
14-Feb-20 19:40 32.734023 -117.179759 104 18ft 0kts
14-Feb-20 19:41 32.734023 -117.179759 104 18ft 0kts
14-Feb-20 19:42 32.734023 -117.179759 104 18ft 0kts
14-Feb-20 19:43 32.734023 -117.179759 104 18ft 0kts
14-Feb-20 19:44 32.734023 -117.179759 104 18ft 0kts
14-Feb-20 19:45 32.734023 -117.179759 104 18ft 0kts
14-Feb-20 19:46 32.734023 -117.179759 104 18ft 0kts
14-Feb-20 19:47 32.734023 -117.179759 104 18ft 0kts
14-Feb-20 19:48 32.734023 -117.179759 104 18ft 0kts
14-Feb-20 19:49 32.734023 -117.179759 104 18ft 0kts
14-Feb-20 19:51 32.734023 -117.179758 104 18ft 0kts
14-Feb-20 19:52 32.734023 -117.179758 104 18ft 0kts
14-Feb-20 19:53 32.734023 -117.179758 104 18ft 0kts
14-Feb-20 19:54 32.734023 -117.179758 104 18ft 0kts
14-Feb-20 19:55 32.734023 -117.179758 104 18ft 0kts
14-Feb-20 19:56 32.734023 -117.179758 104 18ft 0kts
14-Feb-20 19:57 32.734016 -117.179728 104 18ft 1kts
14-Feb-20 19:58 32.732827 -117.179760 195 18ft 5kts
14-Feb-20 19:59 32.731841 -117.177867 106 18ft 9kts
14-Feb-20 20:00 32.730196 -117.175475 244 18ft 8kts
14-Feb-20 20:01 32.735247 -117.196823 288 358ft 137kts
14-Feb-20 20:02 32.759783 -117.245955 303 2430ft 205kts
14-Feb-20 20:03 32.793407 -117.307537 302 5793ft 230kts
14-Feb-20 20:04 32.835692 -117.375118 308 8440ft 282kts
14-Feb-20 20:05 32.885141 -117.451157 305 11703ft 294kts
14-Feb-20 20:06 32.934473 -117.527929 307 14783ft 292kts
14-Feb-20 20:07 32.984514 -117.605930 307 17143ft 301kts
14-Feb-20 20:08 33.036020 -117.686405 308 19197ft 313kts
14-Feb-20 20:09 33.096497 -117.762717 320 21606ft 322kts
14-Feb-20 20:09 33.154245 -117.821616 321 23393ft 330kts
14-Feb-20 20:10 33.225362 -117.893144 323 25295ft 338kts
14-Feb-20 20:12 33.311211 -117.976514 323 27241ft 344kts
14-Feb-20 20:13 33.390027 -118.039180 357 28706ft 338kts
14-Feb-20 20:13 33.464947 -118.013974 17 29825ft 339kts
14-Feb-20 20:14 33.555835 -117.980173 17 30928ft 347kts
14-Feb-20 20:16 33.664807 -117.939025 16 32105ft 357kts
14-Feb-20 20:16 33.744665 -117.908685 16 32848ft 364kts
14-Feb-20 20:17 33.842394 -117.871474 16 33630ft 372kts
14-Feb-20 20:18 33.942151 -117.833398 15 34362ft 380kts
14-Feb-20 20:20 34.060655 -117.787601 19 35176ft 388kts
14-Feb-20 20:20 34.130253 -117.717754 47 35672ft 402kts
14-Feb-20 20:21 34.202070 -117.612610 47 36214ft 409kts
14-Feb-20 20:22 34.274849 -117.505871 47 36716ft 414kts
14-Feb-20 20:23 34.348804 -117.397083 47 37115ft 421kts
14-Feb-20 20:24 34.424614 -117.285239 47 37137ft 436kts
14-Feb-20 20:25 34.502520 -117.169897 48 37166ft 447kts
14-Feb-20 20:26 34.582177 -117.051563 48 37175ft 457kts
14-Feb-20 20:27 34.663134 -116.930897 48 37164ft 466kts
14-Feb-20 20:28 34.745194 -116.808156 48 37150ft 472kts
14-Feb-20 20:29 34.829201 -116.682173 47 35941ft 486kts
14-Feb-20 20:30 34.925323 -116.575822 36 31537ft 435kts
14-Feb-20 20:31 35.018633 -116.485142 36 27031ft 420kts
14-Feb-20 20:32 35.106700 -116.397033 40 23646ft 393kts
14-Feb-20 20:33 35.179432 -116.307127 43 22366ft 362kts
14-Feb-20 20:34 35.251842 -116.216498 43 21875ft 389kts
14-Feb-20 20:35 35.331104 -116.116781 43 21285ft 429kts
14-Feb-20 20:36 35.418453 -116.006478 43 19381ft 454kts
14-Feb-20 20:37 35.503201 -115.899060 43 17369ft 425kts
14-Feb-20 20:38 35.584206 -115.796301 43 15373ft 415kts
14-Feb-20 20:39 35.665658 -115.700191 35 13382ft 394kts
14-Feb-20 20:40 35.751037 -115.626181 33 12709ft 358kts
14-Feb-20 20:41 35.833757 -115.552980 34 12160ft 377kts
14-Feb-20 20:42 35.920239 -115.475488 34 11614ft 391kts
14-Feb-20 20:43 36.004312 -115.389880 53 11078ft 381kts
14-Feb-20 20:44 36.024379 -115.283376 95 10981ft 286kts
14-Feb-20 20:45 36.017487 -115.187938 95 9332ft 278kts
14-Feb-20 20:46 36.011656 -115.100716 95 8957ft 235kts
14-Feb-20 20:47 36.006258 -115.013802 94 7023ft 264kts
14-Feb-20 20:48 36.001302 -114.929603 94 6018ft 225kts
14-Feb-20 20:49 36.045234 -114.890203 352 5141ft 240kts
14-Feb-20 20:50 36.083829 -114.944410 279 5014ft 200kts
14-Feb-20 20:51 36.074503 -115.005999 260 3485ft 175kts
14-Feb-20 20:52 36.073789 -115.059428 269 3174ft 152kts
14-Feb-20 20:53 36.073716 -115.105953 268 2561ft 135kts
14-Feb-20 20:54 36.073644 -115.142696 269 2184ft 60kts
14-Feb-20 20:55 36.075982 -115.151732 336 2184ft 11kts
14-Feb-20 20:56 36.078044 -115.153836 269 2184ft 12kts
14-Feb-20 20:57 36.078036 -115.159329 269 2184ft 18kts
14-Feb-20 20:58 36.078034 -115.166436 270 2184ft 20kts
14-Feb-20 20:59 36.078761 -115.170838 24 2184ft 8kts
14-Feb-20 21:00 36.081412 -115.170244 247 2184ft 6kts
14-Feb-20 21:01 36.081190 -115.170773 267 2184ft 0kts
14-Feb-20 21:02 36.081190 -115.170773 267 2184ft 0kts
14-Feb-20 21:03 36.081190 -115.170773 267 2184ft 0kts

Navigation Log

Ident Type
Flight plan parsing failed, navigation log unavailable